This is the latest recevied weather packets stored in our database for station/object SP2ARQ-13. If no packets are shown the sender has not sent any weather packets the latest 10 day(s).
| Time | Temp. | Humidity | Pressure | Rain* | Wind** | Luminosity | Snow |
|---|---|---|---|---|---|---|---|
| 1777019411 | 16.11° C | 55% | 1013.7 hPa | - | - | - | - |
| 1777018511 | 15° C | 59% | 1013.7 hPa | - | - | - | - |
| 1777017611 | 13.33° C | 66% | 1013.8 hPa | - | - | - | - |
| 1777016711 | 13.33° C | 64% | 1013.8 hPa | - | - | - | - |
| 1777015811 | 12.22° C | 69% | 1013.7 hPa | - | - | - | - |
| 1777014910 | 12.22° C | 69% | 1013.6 hPa | - | - | - | - |
| 1777014010 | 12.78° C | 68% | 1013.6 hPa | - | - | - | - |
| 1777013110 | 11.11° C | 76% | 1013.7 hPa | - | - | - | - |
| 1777012210 | 10° C | 80% | 1013.8 hPa | - | - | - | - |
| 1777011310 | 9.44° C | 83% | 1013.7 hPa | - | - | - | - |
| 1777010410 | 8.33° C | 90% | 1013.8 hPa | - | - | - | - |
| 1777009510 | 7.22° C | 95% | 1013.8 hPa | - | - | - | - |
| 1777008609 | 7.22° C | 92% | 1013.9 hPa | - | - | - | - |
| 1777007709 | 6.11° C | 99% | 1013.9 hPa | - | - | - | - |
| 1777006809 | 5.56° C | 100% | 1013.8 hPa | - | - | - | - |
| 1777005909 | 5.56° C | 100% | 1013.9 hPa | - | - | - | - |
| 1777005009 | 5.56° C | 98% | 1013.9 hPa | - | - | - | - |
| 1777004109 | 5.56° C | 96% | 1013.9 hPa | - | - | - | - |
| 1777003209 | 5.56° C | 95% | 1013.9 hPa | - | - | - | - |
| 1777002308 | 5.56° C | 93% | 1014.1 hPa | - | - | - | - |
| 1777001408 | 5.56° C | 91% | 1014 hPa | - | - | - | - |
| 1777000508 | 5.56° C | 89% | 1014.1 hPa | - | - | - | - |
| 1776999608 | 5.56° C | 87% | 1014.2 hPa | - | - | - | - |
| 1776998707 | 5.56° C | 85% | 1014.4 hPa | - | - | - | - |
| 1776997807 | 5° C | 86% | 1014.5 hPa | - | - | - | - |
* Rain since midnight (hover to see other rain measurements)
** Current wind speed in m/s (hover to see current wind gust speed)